Time;durP1;ratioP1;P1;durP2;ratioP2;P2;SDS_P1;SDS_P2;PMS_P1;PMS_P2;Temp;Humidity;BMP_temperature;BMP_pressure;BME280_temperature;BME280_humidity;BME280_pressure;Samples;Min_cycle;Max_cycle;Signal;HPM_P1;HPM_P2
2022/03/04 00:00:09;;;;;;;45.40;30.92;;;9.70;68.30;;;;;;5093121;28;20527;-76
2022/03/04 00:02:38;;;;;;;49.80;31.63;;;9.70;68.40;;;;;;5093148;28;20100;-74
2022/03/04 00:05:04;;;;;;;42.33;31.00;;;9.70;68.80;;;;;;5092986;28;20038;-76
2022/03/04 00:07:30;;;;;;;39.92;29.52;;;9.60;68.50;;;;;;5092813;28;20028;-77
2022/03/04 00:09:56;;;;;;;48.10;31.00;;;9.60;68.50;;;;;;5093223;28;20024;-76
2022/03/04 00:12:23;;;;;;;42.85;30.15;;;9.60;68.70;;;;;;5093066;28;20081;-79
2022/03/04 00:14:51;;;;;;;46.90;32.05;;;9.50;68.60;;;;;;5093264;28;20021;-76
2022/03/04 00:17:17;;;;;;;43.47;30.65;;;9.40;68.60;;;;;;5094038;28;20024;-78
2022/03/04 00:19:46;;;;;;;43.35;31.60;;;9.40;68.60;;;;;;5104262;28;20028;-77
2022/03/04 00:22:14;;;;;;;40.72;30.95;;;9.30;68.60;;;;;;5104069;28;20042;-76
2022/03/04 00:24:40;;;;;;;44.08;29.85;;;9.20;69.30;;;;;;5096457;28;20445;-75
2022/03/04 00:27:09;;;;;;;40.10;30.27;;;9.20;69.50;;;;;;5091816;28;20030;-78
2022/03/04 00:29:34;;;;;;;45.53;31.02;;;9.20;69.20;;;;;;5075250;28;20536;-78
2022/03/04 00:32:00;;;;;;;39.90;29.70;;;9.20;69.80;;;;;;5092956;28;20056;-78
2022/03/04 00:34:27;;;;;;;45.20;32.38;;;9.10;69.50;;;;;;5092915;28;20448;-77
2022/03/04 00:36:53;;;;;;;41.08;30.42;;;9.10;69.40;;;;;;5093166;28;20095;-76
2022/03/04 00:39:23;;;;;;;39.20;30.67;;;9.00;69.70;;;;;;5091371;28;20025;-79
2022/03/04 00:41:50;;;;;;;42.42;30.70;;;9.00;69.90;;;;;;5092487;28;20079;-77
2022/03/04 00:44:16;;;;;;;44.10;30.80;;;9.10;69.80;;;;;;5092921;28;20035;-78
2022/03/04 00:46:41;;;;;;;43.72;30.33;;;9.10;69.70;;;;;;5092564;28;20040;-77
2022/03/04 00:49:08;;;;;;;39.03;30.45;;;9.00;70.10;;;;;;5092691;28;20402;-76
2022/03/04 00:51:34;;;;;;;45.10;30.48;;;9.00;70.40;;;;;;5090789;28;20408;-74
2022/03/04 00:54:09;;;;;;;39.08;30.55;;;8.90;70.30;;;;;;5092855;28;20052;-74
2022/03/04 00:56:37;;;;;;;41.88;28.95;;;8.80;70.90;;;;;;5093961;28;20097;-75
2022/03/04 00:59:07;;;;;;;41.25;29.52;;;8.70;70.90;;;;;;5095905;28;20043;-77
2022/03/04 01:01:33;;;;;;;40.33;28.88;;;8.70;71.10;;;;;;5096975;28;20357;-73
2022/03/04 01:03:59;;;;;;;37.67;29.50;;;8.70;71.40;;;;;;5097539;28;20032;-76
2022/03/04 01:06:24;;;;;;;42.38;29.02;;;8.70;71.30;;;;;;5096881;28;20024;-74
2022/03/04 01:08:50;;;;;;;38.65;29.90;;;8.60;71.40;;;;;;5096431;28;20196;-77
2022/03/04 01:11:17;;;;;;;40.70;28.95;;;8.60;71.60;;;;;;5096801;28;20074;-75
2022/03/04 01:13:47;;;;;;;39.15;30.23;;;8.60;71.70;;;;;;5095493;28;20020;-73
2022/03/04 01:16:13;;;;;;;36.17;28.15;;;8.60;71.60;;;;;;5096568;28;20032;-79
2022/03/04 01:18:40;;;;;;;40.72;29.10;;;8.60;71.90;;;;;;5096352;28;20066;-77
2022/03/04 01:21:06;;;;;;;39.08;27.75;;;8.60;72.00;;;;;;5096140;28;20027;-72
2022/03/04 01:23:34;;;;;;;41.95;28.38;;;8.60;72.20;;;;;;5094965;28;20428;-71
2022/03/04 01:26:01;;;;;;;37.55;27.85;;;8.50;72.60;;;;;;5096270;28;20026;-70
2022/03/04 01:28:27;;;;;;;40.22;27.85;;;8.40;72.40;;;;;;5095924;28;20028;-71
2022/03/04 01:31:02;;;;;;;37.22;27.15;;;8.40;72.40;;;;;;5093155;28;20496;-71
2022/03/04 01:33:32;;;;;;;38.80;26.55;;;8.40;72.60;;;;;;5095745;28;20069;-72
2022/03/04 01:35:58;;;;;;;35.08;27.17;;;8.40;72.40;;;;;;5095762;28;20431;-71
2022/03/04 01:38:23;;;;;;;38.90;27.48;;;8.40;72.20;;;;;;5095714;28;20058;-71
2022/03/04 01:40:50;;;;;;;37.83;26.67;;;8.40;72.40;;;;;;5095702;28;20515;-72
2022/03/04 01:43:16;;;;;;;34.00;25.10;;;8.40;72.80;;;;;;5095495;28;20174;-70
2022/03/04 01:45:45;;;;;;;34.78;26.42;;;8.40;72.50;;;;;;5095702;28;20025;-70
2022/03/04 01:48:11;;;;;;;32.35;25.52;;;8.40;72.90;;;;;;5095341;28;20036;-72
2022/03/04 01:50:37;;;;;;;34.88;25.02;;;8.30;72.70;;;;;;5095751;28;20029;-71
2022/03/04 01:53:03;;;;;;;46.97;26.73;;;8.30;72.70;;;;;;5095815;28;20027;-71
2022/03/04 01:55:31;;;;;;;33.80;24.80;;;8.30;72.70;;;;;;5093132;28;20481;-75
2022/03/04 01:57:57;;;;;;;34.72;25.58;;;8.20;73.10;;;;;;5094210;28;20028;-71
2022/03/04 02:00:23;;;;;;;32.63;25.95;;;8.20;73.00;;;;;;5095510;28;20493;-71
2022/03/04 02:02:49;;;;;;;35.78;26.08;;;8.10;73.30;;;;;;5095559;28;20085;-72
2022/03/04 02:05:18;;;;;;;38.97;25.70;;;8.10;73.60;;;;;;5095408;28;20563;-71
2022/03/04 02:07:46;;;;;;;32.25;25.05;;;8.10;73.30;;;;;;5094392;28;20062;-70
2022/03/04 02:10:12;;;;;;;34.38;26.58;;;8.10;73.80;;;;;;5094990;28;20128;-73
2022/03/04 02:12:38;;;;;;;32.15;25.10;;;8.10;73.20;;;;;;5094047;28;20081;-72
2022/03/04 02:15:05;;;;;;;33.22;25.48;;;8.00;73.20;;;;;;5095244;28;20028;-73
2022/03/04 02:17:31;;;;;;;33.67;24.70;;;8.00;73.60;;;;;;5077165;28;20127;-72
2022/03/04 02:19:59;;;;;;;36.85;25.92;;;7.90;73.60;;;;;;5093923;28;20188;-71
2022/03/04 02:22:26;;;;;;;38.45;26.75;;;7.80;74.40;;;;;;5093909;28;20118;-70
2022/03/04 02:24:56;;;;;;;35.13;25.27;;;7.70;74.50;;;;;;5095099;28;20028;-74
2022/03/04 02:27:25;;;;;;;34.13;24.50;;;7.70;74.10;;;;;;5093896;28;20047;-77
2022/03/04 02:29:51;;;;;;;35.40;24.55;;;7.50;74.80;;;;;;5094049;28;20531;-70
2022/03/04 02:32:18;;;;;;;30.95;23.20;;;7.50;74.60;;;;;;5094632;28;20032;-71
2022/03/04 02:34:44;;;;;;;30.73;22.95;;;7.40;74.40;;;;;;5094511;28;20040;-72
2022/03/04 02:37:10;;;;;;;32.13;23.58;;;7.40;75.10;;;;;;5094771;28;20500;-73
2022/03/04 02:39:35;;;;;;;31.52;23.05;;;7.40;74.80;;;;;;5094392;28;20462;-76
2022/03/04 02:42:01;;;;;;;30.27;21.05;;;7.50;74.80;;;;;;5094103;28;20044;-72
2022/03/04 02:44:27;;;;;;;29.27;22.70;;;7.50;74.60;;;;;;5094837;28;20085;-73
2022/03/04 02:46:53;;;;;;;33.60;22.85;;;7.60;74.30;;;;;;5094733;28;20029;-71
2022/03/04 02:49:20;;;;;;;31.70;22.08;;;7.60;74.60;;;;;;5094306;28;20050;-70
2022/03/04 02:51:50;;;;;;;35.65;22.45;;;7.60;74.10;;;;;;5093313;28;20020;-73
2022/03/04 02:54:22;;;;;;;30.10;21.65;;;7.70;73.90;;;;;;5094333;28;20075;-71
2022/03/04 02:56:48;;;;;;;31.48;22.25;;;7.70;73.40;;;;;;5092976;28;20106;-70
2022/03/04 02:59:16;;;;;;;29.63;22.02;;;7.70;73.40;;;;;;5094286;28;20017;-69
2022/03/04 03:01:41;;;;;;;28.45;21.70;;;7.70;73.80;;;;;;5094258;28;20423;-71
2022/03/04 03:04:08;;;;;;;28.73;22.13;;;7.70;73.60;;;;;;5094250;28;20110;-70
2022/03/04 03:06:34;;;;;;;29.15;22.00;;;7.70;73.20;;;;;;5094465;28;20016;-72
2022/03/04 03:09:03;;;;;;;31.60;22.08;;;7.70;73.00;;;;;;5094102;28;20071;-70
2022/03/04 03:11:29;;;;;;;28.13;20.88;;;7.70;73.80;;;;;;5095368;28;20374;-70
2022/03/04 03:13:55;;;;;;;32.10;22.25;;;7.70;73.50;;;;;;5095657;28;20053;-71
2022/03/04 03:16:22;;;;;;;28.05;21.73;;;7.60;73.60;;;;;;5093049;28;20085;-72
2022/03/04 03:18:48;;;;;;;29.85;22.63;;;7.60;73.40;;;;;;5093864;28;20032;-71
2022/03/04 03:21:14;;;;;;;30.02;22.35;;;7.60;73.90;;;;;;5093862;28;20024;-72
2022/03/04 03:23:43;;;;;;;31.38;22.77;;;7.60;73.90;;;;;;5093979;28;20119;-74
2022/03/04 03:26:09;;;;;;;28.75;21.13;;;7.60;74.40;;;;;;5093812;28;20024;-72
2022/03/04 03:28:36;;;;;;;31.50;23.38;;;7.60;74.70;;;;;;5093153;28;20048;-70
2022/03/04 03:31:01;;;;;;;29.48;22.33;;;7.50;74.30;;;;;;5093836;28;20035;-70
2022/03/04 03:33:27;;;;;;;31.95;23.05;;;7.40;74.80;;;;;;5093716;28;20024;-72
2022/03/04 03:35:54;;;;;;;30.10;23.20;;;7.40;75.30;;;;;;5094766;28;20094;-71
2022/03/04 03:38:25;;;;;;;27.00;21.15;;;7.40;75.20;;;;;;5092601;28;20043;-70
2022/03/04 03:40:51;;;;;;;32.67;22.80;;;7.40;75.50;;;;;;5092021;28;20385;-70
2022/03/04 03:43:18;;;;;;;28.70;22.10;;;7.30;75.40;;;;;;5093702;28;20051;-76
2022/03/04 03:45:44;;;;;;;28.10;22.65;;;7.20;76.10;;;;;;5093149;28;20082;-76
2022/03/04 03:48:10;;;;;;;30.52;21.55;;;7.20;75.70;;;;;;5093238;28;20127;-74
2022/03/04 03:50:38;;;;;;;30.42;21.40;;;7.20;76.20;;;;;;5093155;28;20129;-76
2022/03/04 03:53:06;;;;;;;28.83;21.35;;;7.20;75.80;;;;;;5093058;28;20036;-70
2022/03/04 03:55:31;;;;;;;27.65;21.60;;;7.20;76.10;;;;;;5093442;28;20430;-70
2022/03/04 03:58:00;;;;;;;28.42;21.63;;;7.30;75.70;;;;;;5093269;28;20028;-77
2022/03/04 04:00:27;;;;;;;30.75;21.83;;;7.30;75.40;;;;;;5092582;28;20036;-77
2022/03/04 04:02:53;;;;;;;27.60;20.45;;;7.20;75.60;;;;;;5093307;28;20379;-70
2022/03/04 04:05:20;;;;;;;27.55;21.80;;;7.20;75.50;;;;;;5093064;28;20028;-70
2022/03/04 04:07:47;;;;;;;30.45;21.90;;;7.30;75.70;;;;;;5092949;28;20540;-70
2022/03/04 04:10:14;;;;;;;25.75;19.58;;;7.30;75.80;;;;;;5093110;28;20028;-71
2022/03/04 04:12:39;;;;;;;28.23;21.30;;;7.30;75.80;;;;;;5093162;28;20021;-72
2022/03/04 04:15:07;;;;;;;28.38;21.23;;;7.30;75.50;;;;;;5093151;28;20039;-70
2022/03/04 04:17:32;;;;;;;27.92;20.80;;;7.20;75.20;;;;;;5090942;28;20047;-72
2022/03/04 04:19:58;;;;;;;28.65;20.90;;;7.20;75.50;;;;;;5074648;28;20032;-74
2022/03/04 04:22:24;;;;;;;28.15;20.15;;;7.20;75.50;;;;;;5092898;28;20028;-70
2022/03/04 04:24:53;;;;;;;26.85;20.52;;;7.10;75.20;;;;;;5092950;28;20024;-71
2022/03/04 04:27:18;;;;;;;28.30;21.23;;;7.10;75.70;;;;;;5092820;28;20050;-72
2022/03/04 04:29:44;;;;;;;28.02;20.98;;;7.10;75.40;;;;;;5092396;28;20477;-70
2022/03/04 04:32:10;;;;;;;27.73;20.90;;;7.00;75.30;;;;;;5090551;28;20025;-71
2022/03/04 04:34:36;;;;;;;24.73;19.55;;;7.00;75.40;;;;;;5092792;28;20072;-70
2022/03/04 04:37:01;;;;;;;33.78;20.50;;;7.10;75.40;;;;;;5092846;28;20024;-72
2022/03/04 04:39:27;;;;;;;26.73;19.65;;;7.00;75.30;;;;;;5091522;28;20084;-73
2022/03/04 04:41:54;;;;;;;25.85;20.67;;;7.00;75.40;;;;;;5092639;28;20020;-76
2022/03/04 04:44:20;;;;;;;31.60;20.27;;;6.90;75.40;;;;;;5091122;28;20040;-71
2022/03/04 04:46:46;;;;;;;26.65;20.48;;;6.90;75.90;;;;;;5092574;28;20080;-74
2022/03/04 04:49:11;;;;;;;25.45;20.25;;;7.00;75.80;;;;;;5091109;28;20040;-71
2022/03/04 04:51:38;;;;;;;29.00;19.95;;;7.00;75.70;;;;;;5092602;28;20068;-73
2022/03/04 04:54:03;;;;;;;31.20;20.80;;;7.00;75.40;;;;;;5092589;28;20035;-73
2022/03/04 04:56:31;;;;;;;27.98;20.90;;;7.00;75.70;;;;;;5091349;28;20069;-74
2022/03/04 04:58:57;;;;;;;28.63;20.00;;;7.00;75.10;;;;;;5092486;28;20028;-74
2022/03/04 05:01:22;;;;;;;28.05;20.27;;;7.00;75.00;;;;;;5092579;28;20035;-71
2022/03/04 05:03:48;;;;;;;28.80;19.70;;;7.00;74.80;;;;;;5092717;28;20513;-74
2022/03/04 05:06:15;;;;;;;30.52;19.48;;;7.00;74.70;;;;;;5092972;28;20024;-77
2022/03/04 05:08:41;;;;;;;24.80;19.48;;;7.00;74.40;;;;;;5092549;28;20074;-72
2022/03/04 05:11:08;;;;;;;28.33;20.38;;;7.00;74.40;;;;;;5092077;28;20054;-77
2022/03/04 05:13:42;;;;;;;30.38;21.10;;;6.90;74.40;;;;;;5092633;28;20027;-78
2022/03/04 05:16:08;;;;;;;27.80;21.65;;;6.80;74.60;;;;;;5092332;28;20388;-76
2022/03/04 05:18:35;;;;;;;26.27;20.13;;;6.80;75.50;;;;;;5092367;28;20495;-78
2022/03/04 05:21:05;;;;;;;25.25;20.05;;;6.80;74.80;;;;;;5091557;28;20028;-77
2022/03/04 05:26:14;;;;;;;;;;;6.80;75.10;;;;;;5092977;28;20136;-77
2022/03/04 05:28:42;;;;;;;30.50;20.30;;;6.80;76.40;;;;;;5092241;28;19913;-77
2022/03/04 05:31:07;;;;;;;28.10;20.45;;;6.70;75.50;;;;;;5092430;28;20032;-79
2022/03/04 05:33:33;;;;;;;29.77;21.15;;;6.70;76.00;;;;;;5092532;28;20350;-78
2022/03/04 05:36:01;;;;;;;30.50;20.52;;;6.60;76.50;;;;;;5091109;28;20062;-78
2022/03/04 05:38:26;;;;;;;27.13;20.02;;;6.60;76.30;;;;;;5092381;28;20051;-76
2022/03/04 05:40:53;;;;;;;30.27;20.27;;;6.60;77.10;;;;;;5092389;28;20023;-76
2022/03/04 05:43:21;;;;;;;27.02;20.90;;;6.50;76.70;;;;;;5092702;28;20077;-78
2022/03/04 05:45:47;;;;;;;31.05;20.70;;;6.60;76.70;;;;;;5095849;28;20155;-78
2022/03/04 05:48:13;;;;;;;31.10;21.70;;;6.70;77.10;;;;;;5095735;28;20539;-75
2022/03/04 05:50:39;;;;;;;32.55;22.27;;;6.50;76.80;;;;;;5095982;28;20016;-75
2022/03/04 05:53:05;;;;;;;32.70;22.02;;;6.50;77.50;;;;;;5071284;28;20092;-74
2022/03/04 05:55:31;;;;;;;29.25;21.30;;;6.50;77.90;;;;;;5099872;28;20032;-74
2022/03/04 05:57:57;;;;;;;26.55;20.70;;;6.50;77.70;;;;;;5100769;28;20043;-73
2022/03/04 06:00:26;;;;;;;30.33;21.90;;;6.60;77.60;;;;;;5099649;28;20033;-75
2022/03/04 06:02:53;;;;;;;26.58;20.33;;;6.50;76.60;;;;;;5095694;28;20101;-72
2022/03/04 06:05:21;;;;;;;26.02;20.38;;;6.40;76.10;;;;;;5095752;28;20077;-74
2022/03/04 06:07:47;;;;;;;29.05;20.42;;;6.40;77.30;;;;;;5095408;28;20481;-75
2022/03/04 06:10:13;;;;;;;28.40;20.98;;;6.40;77.30;;;;;;5095907;28;20073;-74
2022/03/04 06:12:40;;;;;;;31.48;21.20;;;6.40;77.00;;;;;;5096644;28;20028;-77
2022/03/04 06:15:13;;;;;;;26.60;21.00;;;6.40;77.80;;;;;;5096082;28;20039;-77
2022/03/04 06:17:46;;;;;;;27.13;20.60;;;6.50;77.50;;;;;;5094444;28;20080;-78
2022/03/04 06:20:12;;;;;;;24.90;18.98;;;6.40;77.20;;;;;;5095862;28;20031;-76
2022/03/04 06:22:39;;;;;;;25.50;18.65;;;6.50;77.10;;;;;;5095018;28;20028;-77
2022/03/04 06:25:06;;;;;;;26.42;20.02;;;6.50;76.00;;;;;;5095405;28;20027;-77
2022/03/04 06:27:31;;;;;;;29.65;20.20;;;6.70;76.20;;;;;;5095430;28;20021;-79
2022/03/04 06:29:58;;;;;;;24.75;19.85;;;6.80;76.50;;;;;;5094820;28;20040;-75
2022/03/04 06:32:23;;;;;;;25.23;19.52;;;6.80;75.40;;;;;;5095638;28;20027;-77
2022/03/04 06:34:53;;;;;;;28.48;19.55;;;6.80;75.30;;;;;;5095330;28;20107;-78
2022/03/04 06:37:19;;;;;;;26.85;20.00;;;6.80;75.50;;;;;;5095430;28;20024;-78
2022/03/04 06:39:45;;;;;;;28.63;19.67;;;6.80;75.60;;;;;;5095283;28;20036;-78
2022/03/04 06:42:11;;;;;;;31.27;20.02;;;6.90;75.40;;;;;;5094500;28;20039;-79
2022/03/04 06:44:38;;;;;;;31.38;19.33;;;7.10;75.00;;;;;;5094961;28;20035;-74
2022/03/04 06:47:04;;;;;;;25.80;18.50;;;7.20;74.30;;;;;;5094993;28;20081;-75
2022/03/04 06:49:29;;;;;;;30.83;20.67;;;7.20;74.10;;;;;;5095862;28;20036;-79
2022/03/04 06:51:56;;;;;;;29.73;19.33;;;7.20;74.10;;;;;;5096662;28;20046;-83
2022/03/04 06:54:22;;;;;;;26.88;18.80;;;7.30;73.60;;;;;;5095199;28;20477;-68
2022/03/04 06:56:48;;;;;;;25.30;18.13;;;7.50;73.40;;;;;;5095387;28;20055;-70
2022/03/04 06:59:14;;;;;;;29.58;18.23;;;7.50;72.50;;;;;;5093799;28;20053;-71
2022/03/04 07:01:42;;;;;;;26.25;18.95;;;7.60;71.80;;;;;;5094800;28;20032;-81
2022/03/04 07:04:08;;;;;;;23.55;18.02;;;7.70;72.90;;;;;;5095874;28;20036;-68
2022/03/04 07:06:34;;;;;;;24.73;17.42;;;7.80;71.50;;;;;;5095966;28;20034;-74
2022/03/04 07:08:59;;;;;;;23.00;16.95;;;8.00;70.90;;;;;;5095849;28;20501;-77
2022/03/04 07:11:25;;;;;;;27.30;18.52;;;8.10;70.60;;;;;;5094526;28;20454;-77
2022/03/04 07:13:53;;;;;;;24.30;18.27;;;8.30;70.30;;;;;;5093158;28;20525;-81
2022/03/04 07:16:19;;;;;;;27.48;18.35;;;8.50;70.10;;;;;;5094476;28;20028;-81
2022/03/04 07:18:45;;;;;;;29.13;17.67;;;8.70;68.70;;;;;;5094250;28;20495;-77
2022/03/04 07:21:11;;;;;;;24.92;18.88;;;8.70;68.70;;;;;;5092975;28;20043;-79
2022/03/04 07:23:37;;;;;;;25.58;18.00;;;8.80;67.90;;;;;;5094050;28;20488;-74
2022/03/04 07:26:08;;;;;;;26.58;17.92;;;8.80;68.90;;;;;;5093839;28;20020;-78
2022/03/04 07:28:34;;;;;;;25.45;17.95;;;9.00;68.30;;;;;;5093159;28;20027;-77
2022/03/04 07:30:59;;;;;;;25.05;18.77;;;9.20;68.00;;;;;;5094053;28;20024;-78
2022/03/04 07:33:25;;;;;;;26.98;18.30;;;9.30;67.40;;;;;;5094032;28;20469;-79
2022/03/04 07:35:55;;;;;;;25.52;18.27;;;9.40;66.80;;;;;;5093903;28;20077;-77
2022/03/04 07:38:21;;;;;;;27.58;18.13;;;9.50;66.10;;;;;;5092356;28;20069;-78
2022/03/04 07:40:46;;;;;;;24.83;17.58;;;9.40;65.90;;;;;;5092722;28;20031;-79
2022/03/04 07:43:12;;;;;;;28.50;18.65;;;9.50;66.60;;;;;;5094304;28;20073;-76
2022/03/04 07:45:38;;;;;;;30.67;18.27;;;9.70;65.70;;;;;;5094023;28;20501;-80
2022/03/04 07:48:04;;;;;;;28.05;18.50;;;9.80;65.70;;;;;;5093779;28;20034;-78
2022/03/04 07:50:30;;;;;;;26.25;19.23;;;9.70;64.30;;;;;;5093418;28;20469;-77
2022/03/04 07:52:56;;;;;;;26.73;18.52;;;9.90;65.40;;;;;;5093587;28;20501;-76
2022/03/04 07:55:26;;;;;;;35.20;19.08;;;10.00;64.20;;;;;;5094136;28;20111;-81
2022/03/04 07:57:53;;;;;;;31.52;19.70;;;10.10;62.70;;;;;;5093568;28;20074;-73
2022/03/04 08:00:19;;;;;;;32.53;19.23;;;10.20;62.40;;;;;;5094234;28;20024;-75
2022/03/04 08:02:44;;;;;;;28.10;19.75;;;10.20;61.90;;;;;;5094531;28;20358;-68
2022/03/04 08:05:11;;;;;;;23.85;17.77;;;10.30;61.60;;;;;;5074947;28;20066;-71
2022/03/04 08:07:38;;;;;;;28.15;18.92;;;10.40;61.20;;;;;;5092493;28;20027;-71
2022/03/04 08:10:08;;;;;;;27.23;18.85;;;10.50;61.40;;;;;;5092776;28;20097;-76
2022/03/04 08:12:34;;;;;;;40.30;25.33;;;10.40;61.10;;;;;;5092062;28;20381;-74
2022/03/04 08:15:00;;;;;;;29.80;20.42;;;10.40;61.30;;;;;;5092920;28;20495;-75
2022/03/04 08:17:26;;;;;;;26.30;19.25;;;10.40;61.40;;;;;;5093118;28;20477;-73
2022/03/04 08:19:52;;;;;;;28.48;20.25;;;10.40;61.00;;;;;;5092943;28;20457;-79
2022/03/04 08:22:17;;;;;;;33.13;19.48;;;10.30;60.70;;;;;;5093079;28;20024;-69
2022/03/04 08:24:43;;;;;;;29.80;20.38;;;10.20;60.70;;;;;;5093129;28;20027;-75
2022/03/04 08:27:16;;;;;;;29.38;19.73;;;10.20;60.90;;;;;;5092923;28;20028;-77
2022/03/04 08:29:42;;;;;;;31.35;20.10;;;10.10;60.80;;;;;;5092911;28;20039;-80
2022/03/04 08:32:08;;;;;;;28.38;20.05;;;10.10;60.80;;;;;;5091498;28;20028;-77
2022/03/04 08:34:34;;;;;;;29.25;20.17;;;10.20;61.10;;;;;;5093285;28;20035;-71
2022/03/04 08:37:00;;;;;;;26.42;18.85;;;10.30;61.40;;;;;;5091647;28;20040;-69
2022/03/04 08:39:26;;;;;;;26.92;19.65;;;10.40;61.10;;;;;;5091373;28;20044;-72
2022/03/04 08:41:52;;;;;;;35.28;19.95;;;10.40;60.90;;;;;;5091506;28;20029;-74
2022/03/04 08:44:17;;;;;;;28.55;19.52;;;10.50;60.70;;;;;;5092706;28;20218;-70
2022/03/04 08:46:44;;;;;;;24.20;19.38;;;10.50;60.50;;;;;;5092547;28;20027;-70
2022/03/04 08:49:12;;;;;;;29.08;19.05;;;10.50;60.30;;;;;;5092567;28;20452;-69
2022/03/04 08:51:38;;;;;;;31.60;19.00;;;10.60;60.30;;;;;;5092915;28;20020;-69
2022/03/04 08:54:06;;;;;;;32.30;21.88;;;10.70;60.10;;;;;;5092685;28;20065;-73
2022/03/04 08:56:32;;;;;;;27.15;19.88;;;10.90;60.20;;;;;;5092801;28;20024;-70
2022/03/04 08:58:58;;;;;;;29.38;19.08;;;11.10;59.70;;;;;;5092323;28;20056;-70
2022/03/04 09:01:24;;;;;;;28.65;18.20;;;11.20;59.50;;;;;;5092411;28;20052;-69
2022/03/04 09:03:49;;;;;;;27.92;19.55;;;11.30;58.90;;;;;;5092546;28;20058;-69
2022/03/04 09:06:15;;;;;;;29.90;22.63;;;11.30;58.50;;;;;;5092497;28;20362;-70
2022/03/04 09:08:41;;;;;;;40.10;28.50;;;11.40;58.80;;;;;;5092092;28;20421;-71
2022/03/04 09:11:07;;;;;;;30.70;19.70;;;11.60;58.50;;;;;;5092312;28;20024;-71
2022/03/04 09:13:33;;;;;;;28.35;18.52;;;11.70;58.30;;;;;;5092468;28;20354;-70
2022/03/04 09:16:00;;;;;;;29.27;19.05;;;11.80;58.20;;;;;;5090981;28;20031;-72
2022/03/04 09:18:26;;;;;;;25.73;19.33;;;11.80;58.00;;;;;;5094450;28;20016;-78
2022/03/04 09:20:52;;;;;;;26.17;19.02;;;11.90;58.20;;;;;;5096057;28;20091;-70
2022/03/04 09:23:18;;;;;;;30.77;17.02;;;11.90;58.10;;;;;;5095905;28;20088;-70
2022/03/04 09:25:43;;;;;;;25.35;15.15;;;11.90;58.10;;;;;;5095797;28;20024;-70
2022/03/04 09:28:10;;;;;;;21.63;14.52;;;12.00;57.90;;;;;;5095690;28;20051;-70
2022/03/04 09:30:36;;;;;;;22.25;15.85;;;12.10;58.10;;;;;;5095731;28;20119;-69
2022/03/04 09:33:03;;;;;;;40.05;15.02;;;12.10;58.60;;;;;;5095609;28;20016;-71
2022/03/04 09:35:29;;;;;;;18.92;12.73;;;12.20;57.90;;;;;;5095504;28;20024;-70
2022/03/04 09:37:55;;;;;;;18.85;12.60;;;12.30;57.50;;;;;;5095578;28;20016;-69
2022/03/04 09:40:21;;;;;;;18.30;11.85;;;12.30;56.90;;;;;;5096108;28;20040;-70
2022/03/04 09:42:46;;;;;;;18.30;12.60;;;12.30;57.00;;;;;;5095438;28;20473;-69
2022/03/04 09:45:12;;;;;;;19.92;12.60;;;12.30;56.30;;;;;;5095493;28;20034;-72
2022/03/04 09:47:40;;;;;;;15.43;11.35;;;12.30;55.70;;;;;;5095758;28;20016;-69
2022/03/04 09:50:07;;;;;;;16.83;11.80;;;12.30;55.40;;;;;;5095219;28;20048;-69
2022/03/04 09:52:33;;;;;;;19.95;11.40;;;12.30;54.70;;;;;;5093998;28;20047;-71
2022/03/04 09:55:00;;;;;;;26.08;12.50;;;12.30;54.50;;;;;;5095479;28;20351;-70
2022/03/04 09:57:25;;;;;;;37.42;13.38;;;12.40;54.70;;;;;;5095535;28;20047;-69
2022/03/04 09:59:51;;;;;;;16.52;11.40;;;12.50;54.60;;;;;;5095393;28;20450;-69
2022/03/04 10:02:17;;;;;;;19.10;13.25;;;12.60;54.20;;;;;;5095091;28;20024;-71
2022/03/04 10:04:43;;;;;;;18.65;12.98;;;12.70;53.60;;;;;;5095185;28;20024;-70
2022/03/04 10:07:16;;;;;;;17.67;11.38;;;12.80;53.50;;;;;;5093831;28;20111;-70
2022/03/04 10:09:43;;;;;;;17.55;12.35;;;12.90;53.20;;;;;;5094832;28;20048;-69
2022/03/04 10:12:11;;;;;;;15.27;9.30;;;13.00;53.10;;;;;;5094978;28;20097;-69
2022/03/04 10:14:59;;;;;;;20.45;11.48;;;13.10;52.80;;;;;;5095300;28;20062;-70
2022/03/04 10:17:25;;;;;;;14.63;9.95;;;13.20;52.10;;;;;;5094764;28;20253;-68
2022/03/04 10:19:55;;;;;;;15.18;9.02;;;13.20;51.40;;;;;;5094887;28;20027;-69
2022/03/04 10:22:22;;;;;;;13.77;9.93;;;13.20;50.30;;;;;;5094889;28;20028;-70
2022/03/04 10:24:48;;;;;;;11.63;7.90;;;13.20;50.30;;;;;;5094860;28;20112;-69
2022/03/04 10:27:16;;;;;;;11.63;7.90;;;13.20;50.40;;;;;;5094660;28;20096;-68
2022/03/04 10:29:46;;;;;;;15.40;9.30;;;13.20;49.80;;;;;;5092772;28;20225;-70
2022/03/04 10:32:16;;;;;;;14.30;10.68;;;13.20;50.00;;;;;;5094720;28;20020;-73
2022/03/04 10:34:51;;;;;;;13.73;9.48;;;13.20;50.80;;;;;;5094585;28;20344;-70
2022/03/04 10:37:19;;;;;;;15.90;9.48;;;13.30;50.60;;;;;;5094434;28;20077;-70
2022/03/04 10:40:05;;;;;;;15.68;9.88;;;13.50;50.30;;;;;;5094422;28;20032;-68
2022/03/04 10:42:51;;;;;;;14.82;8.60;;;13.60;49.50;;;;;;5093070;28;20389;-70
2022/03/04 10:45:29;;;;;;;13.35;9.07;;;13.80;50.40;;;;;;5094174;28;20358;-69
2022/03/04 10:48:19;;;;;;;14.70;8.95;;;13.90;50.10;;;;;;5094093;28;20027;-72
2022/03/04 10:50:52;;;;;;;13.25;7.50;;;13.90;49.90;;;;;;5094060;28;20044;-69
2022/03/04 10:53:19;;;;;;;12.32;6.03;;;14.00;49.70;;;;;;5094336;28;20031;-70
2022/03/04 10:55:49;;;;;;;11.10;6.05;;;14.00;47.90;;;;;;5092826;28;20120;-70
2022/03/04 10:58:18;;;;;;;11.82;7.78;;;14.10;47.20;;;;;;5094228;28;20028;-70
2022/03/04 11:00:47;;;;;;;10.90;7.18;;;14.10;47.20;;;;;;5092806;28;20374;-69
2022/03/04 11:03:21;;;;;;;11.55;6.65;;;14.20;47.00;;;;;;5092764;28;20052;-69
2022/03/04 11:05:50;;;;;;;13.18;7.22;;;14.30;46.90;;;;;;5093998;28;20024;-71
2022/03/04 11:08:17;;;;;;;11.00;7.85;;;14.40;46.90;;;;;;5093287;28;20227;-72
2022/03/04 11:10:43;;;;;;;10.00;7.10;;;14.60;46.60;;;;;;5093604;28;20020;-70
2022/03/04 11:13:10;;;;;;;11.57;6.53;;;14.70;46.20;;;;;;5093892;28;20031;-69
2022/03/04 11:15:37;;;;;;;8.50;6.13;;;14.80;45.30;;;;;;5093755;28;20095;-71
2022/03/04 11:18:14;;;;;;;10.63;6.28;;;15.00;45.40;;;;;;5093801;28;20024;-69
2022/03/04 11:20:42;;;;;;;9.23;5.50;;;15.10;45.30;;;;;;5093596;28;20038;-70
2022/03/04 11:23:09;;;;;;;9.40;5.63;;;15.20;44.40;;;;;;5093574;28;20107;-70
2022/03/04 11:25:41;;;;;;;10.50;6.30;;;15.20;44.00;;;;;;5093570;28;20200;-69
2022/03/04 11:28:11;;;;;;;9.38;6.78;;;15.10;43.40;;;;;;5093549;28;20028;-71
2022/03/04 11:30:46;;;;;;;9.00;6.28;;;15.00;43.60;;;;;;5093640;28;20030;-70
2022/03/04 11:33:11;;;;;;;10.55;6.22;;;15.00;43.50;;;;;;5093602;28;20481;-70
2022/03/04 11:36:15;;;;;;;19.55;12.90;;;15.30;43.90;;;;;;5093526;28;20028;-70
2022/03/04 11:38:50;;;;;;;12.65;6.50;;;15.50;43.30;;;;;;5048706;28;20024;-72
2022/03/04 11:41:34;;;;;;;10.93;6.88;;;15.70;43.80;;;;;;5094275;28;20376;-72
2022/03/04 11:44:18;;;;;;;11.48;5.95;;;15.80;42.60;;;;;;5093241;28;20036;-69
2022/03/04 11:46:46;;;;;;;13.35;7.00;;;16.00;42.80;;;;;;5093844;28;20099;-73
2022/03/04 11:49:36;;;;;;;10.48;5.95;;;16.00;41.80;;;;;;5092950;28;20054;-68
2022/03/04 11:52:10;;;;;;;9.05;4.93;;;16.00;41.30;;;;;;5093642;28;20397;-69
2022/03/04 11:54:41;;;;;;;13.35;5.00;;;15.90;41.60;;;;;;5093515;28;20500;-70
2022/03/04 11:57:29;;;;;;;8.50;4.85;;;15.90;40.00;;;;;;5093439;28;20027;-70
2022/03/04 12:00:01;;;;;;;9.63;4.93;;;16.00;39.10;;;;;;5093542;28;20024;-70
2022/03/04 12:02:43;;;;;;;10.00;5.43;;;16.20;39.70;;;;;;5093630;28;20024;-70
2022/03/04 12:05:17;;;;;;;14.45;5.68;;;16.50;39.10;;;;;;5093801;28;20028;-69
2022/03/04 12:07:56;;;;;;;11.32;5.72;;;16.70;40.20;;;;;;5093292;28;20097;-69
2022/03/04 12:10:31;;;;;;;11.43;5.95;;;16.90;39.00;;;;;;5092996;28;20036;-70
2022/03/04 12:13:01;;;;;;;11.68;5.85;;;17.10;40.70;;;;;;5093051;28;20044;-70
2022/03/04 12:15:39;;;;;;;15.02;6.43;;;17.20;41.00;;;;;;5093218;28;20035;-70
2022/03/04 12:18:14;;;;;;;11.18;6.38;;;17.30;39.20;;;;;;5092919;28;20032;-69
2022/03/04 12:20:40;;;;;;;9.90;5.60;;;17.40;39.30;;;;;;5093015;28;20031;-70
2022/03/04 12:23:19;;;;;;;8.32;5.35;;;17.40;40.50;;;;;;5092896;28;20028;-69
2022/03/04 12:25:57;;;;;;;22.00;5.70;;;17.30;38.80;;;;;;5092425;28;20449;-70
2022/03/04 12:28:23;;;;;;;13.80;5.72;;;17.30;39.10;;;;;;5092686;28;20108;-69
2022/03/04 12:31:00;;;;;;;9.27;4.88;;;17.30;40.20;;;;;;5092906;28;20028;-71
2022/03/04 12:33:34;;;;;;;16.05;6.22;;;17.30;38.10;;;;;;5092544;28;20099;-69
2022/03/04 12:36:02;;;;;;;12.27;5.72;;;17.20;38.50;;;;;;5092524;28;20020;-70
2022/03/04 12:38:29;;;;;;;14.88;7.15;;;17.20;40.30;;;;;;5092414;28;20153;-68
2022/03/04 12:40:58;;;;;;;12.27;6.05;;;17.20;40.20;;;;;;5092570;28;20017;-69